createdAt,value
2023-01-19T00:01:33.902Z,84.31
2023-01-19T00:04:03.082Z,84.47
2023-01-19T00:06:31.486Z,84.71
2023-01-19T00:09:00.057Z,84.99
2023-01-19T00:11:27.974Z,85.21
2023-01-19T00:13:55.780Z,85.60
2023-01-19T00:16:24.019Z,85.85
2023-01-19T00:18:52.967Z,85.91
2023-01-19T00:21:22.669Z,86.22
2023-01-19T00:23:52.586Z,86.28
2023-01-19T00:26:22.206Z,86.54
2023-01-19T00:28:50.789Z,86.98
2023-01-19T00:31:20.585Z,87.22
2023-01-19T00:33:49.276Z,87.36
2023-01-19T00:36:17.260Z,87.76
2023-01-19T00:38:46.300Z,87.71
2023-01-19T00:41:14.053Z,88.13
2023-01-19T00:43:41.800Z,88.16
2023-01-19T00:46:09.930Z,88.45
2023-01-19T00:48:37.803Z,88.45
2023-01-19T00:51:06.040Z,88.84
2023-01-19T00:53:33.786Z,88.95
2023-01-19T00:56:02.911Z,89.16
2023-01-19T00:58:30.600Z,89.38
2023-01-19T01:01:03.577Z,89.58
2023-01-19T01:03:31.776Z,89.76
2023-01-19T01:05:59.725Z,89.97
2023-01-19T01:08:27.453Z,89.94
2023-01-19T01:10:56.025Z,90.18
2023-01-19T01:13:27.548Z,90.33
2023-01-19T01:15:57.000Z,90.36
2023-01-19T01:18:25.412Z,90.61
2023-01-19T01:20:55.260Z,90.47
2023-01-19T01:23:24.021Z,90.81
2023-01-19T01:25:51.759Z,90.84
2023-01-19T01:28:19.452Z,91.24
2023-01-19T01:30:48.643Z,91.49
2023-01-19T01:33:16.348Z,91.56
2023-01-19T01:36:04.175Z,91.79
2023-01-19T01:38:31.962Z,92.08
2023-01-19T01:40:59.655Z,92.28
2023-01-19T01:43:43.857Z,92.72
2023-01-19T01:46:16.144Z,92.67
2023-01-19T01:48:49.658Z,92.88
2023-01-19T01:51:26.557Z,92.86
2023-01-19T01:54:04.069Z,92.79
2023-01-19T01:56:36.150Z,93.01
2023-01-19T01:59:07.491Z,92.87
2023-01-19T02:01:55.259Z,93.03
2023-01-19T02:04:24.272Z,93.11
2023-01-19T02:07:09.669Z,93.38
2023-01-19T02:09:55.786Z,93.35
2023-01-19T02:12:41.401Z,93.45
2023-01-19T02:15:16.987Z,93.50
2023-01-19T02:17:46.170Z,93.69
2023-01-19T02:20:14.385Z,93.78
2023-01-19T02:22:48.822Z,93.87
2023-01-19T02:25:20.654Z,93.94
2023-01-19T02:27:49.174Z,94.07
2023-01-19T02:30:18.752Z,93.98
2023-01-19T02:32:46.743Z,94.02
2023-01-19T02:35:14.645Z,94.11
2023-01-19T02:37:44.920Z,93.98
2023-01-19T02:40:15.382Z,93.99
2023-01-19T02:42:47.111Z,93.91
2023-01-19T02:45:18.203Z,93.95
2023-01-19T02:47:49.206Z,93.65
2023-01-19T02:50:39.385Z,93.86
2023-01-19T02:53:25.651Z,93.86
2023-01-19T02:55:58.331Z,93.87
2023-01-19T02:58:34.652Z,93.72
2023-01-19T03:01:12.565Z,93.35
2023-01-19T03:03:51.462Z,93.49
2023-01-19T03:06:27.061Z,93.27
2023-01-19T03:09:00.668Z,93.13
2023-01-19T03:11:34.152Z,93.10
2023-01-19T03:14:10.196Z,93.16
2023-01-19T03:16:43.056Z,93.15
2023-01-19T03:19:14.209Z,93.14
2023-01-19T03:21:47.192Z,93.45
2023-01-19T03:24:16.562Z,93.42
2023-01-19T03:26:47.445Z,93.45
2023-01-19T03:29:18.517Z,93.87
2023-01-19T03:31:49.848Z,93.94
2023-01-19T03:34:22.031Z,93.92
2023-01-19T03:36:53.150Z,94.17
2023-01-19T03:39:24.331Z,94.45
2023-01-19T03:41:55.856Z,94.95
2023-01-19T03:44:27.294Z,95.16
2023-01-19T03:46:55.865Z,95.40
2023-01-19T03:49:23.619Z,95.44
2023-01-19T03:51:51.851Z,95.67
2023-01-19T03:54:19.531Z,95.86
2023-01-19T03:56:47.198Z,96.03
2023-01-19T03:59:17.479Z,96.00
2023-01-19T04:01:46.852Z,96.39
2023-01-19T04:04:15.522Z,96.38
2023-01-19T04:06:43.672Z,96.70
2023-01-19T04:09:11.665Z,96.62
2023-01-19T04:11:39.364Z,96.45
2023-01-19T04:14:07.160Z,96.54
2023-01-19T04:16:34.894Z,96.36
2023-01-19T04:19:04.004Z,96.60
2023-01-19T04:21:31.715Z,96.62
2023-01-19T04:23:59.595Z,96.73
2023-01-19T04:26:27.514Z,97.07
2023-01-19T04:28:55.220Z,97.40
2023-01-19T04:31:23.318Z,97.63
2023-01-19T04:33:51.081Z,97.55
2023-01-19T04:36:20.147Z,97.57
2023-01-19T04:38:48.694Z,97.40
2023-01-19T04:41:16.393Z,97.44
2023-01-19T04:43:44.177Z,97.34
2023-01-19T04:46:11.867Z,97.27
2023-01-19T04:48:41.278Z,97.25
2023-01-19T04:51:09.960Z,97.17
2023-01-19T04:53:39.199Z,97.39
2023-01-19T04:56:07.230Z,97.31
2023-01-19T04:58:35.489Z,97.44
2023-01-19T05:01:03.400Z,97.13
2023-01-19T05:03:31.322Z,97.33
2023-01-19T05:05:59.189Z,97.13
2023-01-19T05:08:27.060Z,96.96
2023-01-19T05:10:57.574Z,96.80
2023-01-19T05:13:25.544Z,96.76
2023-01-19T05:15:53.643Z,96.65
2023-01-19T05:18:21.587Z,96.73
2023-01-19T05:20:49.413Z,96.71
2023-01-19T05:23:17.271Z,96.97
2023-01-19T05:25:45.728Z,97.01
2023-01-19T05:28:15.335Z,96.97
2023-01-19T05:30:43.212Z,96.96
2023-01-19T05:33:11.120Z,97.09
2023-01-19T05:35:38.987Z,96.95
2023-01-19T05:38:06.897Z,96.95
2023-01-19T05:40:34.670Z,97.00
2023-01-19T05:43:05.193Z,97.21
2023-01-19T05:45:35.168Z,97.20
2023-01-19T05:48:03.121Z,97.15
2023-01-19T05:50:30.881Z,97.38
2023-01-19T05:53:00.181Z,97.24
2023-01-19T05:55:29.277Z,97.39
2023-01-19T05:57:57.095Z,97.30
2023-01-19T06:00:25.776Z,97.35
2023-01-19T06:02:55.023Z,97.09
2023-01-19T06:05:22.782Z,96.95
2023-01-19T06:07:50.553Z,96.71
2023-01-19T06:10:18.424Z,96.56
2023-01-19T06:12:46.178Z,96.79
2023-01-19T06:15:14.465Z,96.70
2023-01-19T06:17:42.553Z,96.77
2023-01-19T06:20:14.017Z,96.79
2023-01-19T06:22:41.807Z,96.88
2023-01-19T06:25:10.381Z,96.96
2023-01-19T06:27:39.856Z,96.88
2023-01-19T06:30:08.807Z,97.05
2023-01-19T06:32:36.504Z,97.16
2023-01-19T06:35:04.234Z,97.11
2023-01-19T06:37:33.382Z,97.15
2023-01-19T06:40:01.152Z,97.10
2023-01-19T06:42:29.021Z,97.30
2023-01-19T06:44:56.694Z,97.27
2023-01-19T06:47:24.448Z,97.23
2023-01-19T06:49:52.229Z,97.29
2023-01-19T06:52:20.593Z,97.31
2023-01-19T06:54:49.748Z,97.57
2023-01-19T06:57:17.626Z,97.66
2023-01-19T06:59:45.432Z,97.74
2023-01-19T07:02:27.201Z,97.61
2023-01-19T07:04:55.817Z,97.59
2023-01-19T07:07:23.495Z,97.43
2023-01-19T07:09:54.103Z,97.05
2023-01-19T07:12:22.098Z,97.17
2023-01-19T07:14:50.450Z,96.97
2023-01-19T07:17:18.397Z,96.73
2023-01-19T07:19:47.609Z,96.73
2023-01-19T07:22:15.464Z,96.58
2023-01-19T07:24:43.144Z,96.35
2023-01-19T07:27:12.481Z,96.38
2023-01-19T07:29:40.380Z,96.18
2023-01-19T07:32:08.166Z,96.30
2023-01-19T07:34:36.521Z,95.88
2023-01-19T07:37:04.854Z,95.68
2023-01-19T07:39:32.570Z,95.85
2023-01-19T07:42:00.380Z,95.73
2023-01-19T07:44:29.427Z,95.42
2023-01-19T07:46:57.151Z,95.38
2023-01-19T07:49:25.844Z,95.26
2023-01-19T07:51:56.229Z,95.14
2023-01-19T07:54:24.285Z,94.79
2023-01-19T07:56:54.800Z,94.58
2023-01-19T07:59:22.522Z,94.45
2023-01-19T08:01:53.414Z,94.32
2023-01-19T08:04:21.271Z,94.05
2023-01-19T08:06:49.088Z,93.96
2023-01-19T08:09:16.844Z,94.15
2023-01-19T08:11:44.584Z,94.09
2023-01-19T08:14:12.534Z,93.94
2023-01-19T08:16:40.512Z,93.68
2023-01-19T08:19:09.666Z,93.67
2023-01-19T08:21:38.910Z,93.49
2023-01-19T08:24:07.300Z,93.40
2023-01-19T08:26:36.503Z,93.57
2023-01-19T08:29:06.094Z,93.35
2023-01-19T08:31:34.139Z,92.91
2023-01-19T08:34:01.995Z,92.88
2023-01-19T08:36:31.265Z,93.00
2023-01-19T08:38:58.930Z,93.22
2023-01-19T08:41:26.804Z,93.30
2023-01-19T08:43:54.499Z,93.01
2023-01-19T08:46:22.325Z,93.04
2023-01-19T08:48:50.461Z,92.75
2023-01-19T08:51:19.066Z,92.89
2023-01-19T08:53:48.124Z,92.61
2023-01-19T08:56:15.919Z,92.48
2023-01-19T08:58:46.699Z,92.55
2023-01-19T09:01:19.587Z,92.41
2023-01-19T09:03:47.890Z,92.43
2023-01-19T09:06:19.236Z,92.53
2023-01-19T09:08:48.835Z,91.95
2023-01-19T09:11:17.339Z,92.06
2023-01-19T09:13:45.184Z,91.98
2023-01-19T09:16:15.219Z,90.75
2023-01-19T09:18:43.047Z,89.54
2023-01-19T09:21:11.069Z,88.44
2023-01-19T09:23:38.897Z,88.06
2023-01-19T09:26:08.580Z,87.83
2023-01-19T09:28:36.299Z,88.20
2023-01-19T09:31:06.459Z,86.71
2023-01-19T09:33:35.198Z,85.36
2023-01-19T09:36:03.238Z,84.33
2023-01-19T09:38:33.041Z,82.45
2023-01-19T09:41:01.411Z,81.79
2023-01-19T09:43:38.616Z,81.15
2023-01-19T09:46:12.215Z,80.05
2023-01-19T09:48:48.820Z,79.21
2023-01-19T09:51:20.075Z,77.84
2023-01-19T09:53:58.768Z,76.24
2023-01-19T09:56:29.048Z,75.52
2023-01-19T09:58:59.112Z,74.64
2023-01-19T10:01:39.100Z,73.05
2023-01-19T10:04:34.910Z,72.52
2023-01-19T10:07:20.229Z,71.72
2023-01-19T10:09:57.922Z,71.39
2023-01-19T10:12:36.744Z,70.53
2023-01-19T10:15:16.371Z,69.21
2023-01-19T10:17:53.691Z,69.87
2023-01-19T10:20:29.454Z,68.89
2023-01-19T10:23:00.290Z,68.59
2023-01-19T10:25:28.934Z,67.60
2023-01-19T10:27:57.529Z,67.52
2023-01-19T10:30:30.374Z,65.01
2023-01-19T10:32:58.302Z,65.04
2023-01-19T10:35:26.324Z,65.79
2023-01-19T10:37:58.912Z,67.32
2023-01-19T10:40:33.106Z,68.65
2023-01-19T10:43:01.226Z,69.97
2023-01-19T10:45:32.412Z,70.07
2023-01-19T10:48:08.699Z,70.38
2023-01-19T10:50:39.805Z,71.78
2023-01-19T10:53:20.505Z,72.45
2023-01-19T10:55:48.338Z,73.04
2023-01-19T10:58:29.496Z,72.77
2023-01-19T11:01:15.233Z,74.54
2023-01-19T11:03:43.112Z,69.00
2023-01-19T11:06:28.680Z,66.68
2023-01-19T11:09:12.814Z,66.10
2023-01-19T11:11:45.559Z,66.39
2023-01-19T11:14:15.365Z,65.33
2023-01-19T11:16:48.375Z,65.75
2023-01-19T11:19:21.803Z,65.53
2023-01-19T11:21:49.693Z,66.97
2023-01-19T11:24:17.806Z,66.63
2023-01-19T11:26:49.003Z,65.83
2023-01-19T11:29:20.005Z,65.85
2023-01-19T11:31:49.840Z,65.93
2023-01-19T11:34:32.785Z,66.13
2023-01-19T11:37:03.533Z,66.25
2023-01-19T11:39:33.175Z,65.19
2023-01-19T11:42:03.736Z,64.58
2023-01-19T11:44:34.544Z,64.10
2023-01-19T11:47:06.976Z,63.09
2023-01-19T11:49:44.122Z,62.84
2023-01-19T11:52:20.135Z,63.40
2023-01-19T11:54:55.711Z,63.32
2023-01-19T11:57:23.718Z,63.92
2023-01-19T11:59:51.508Z,64.56
2023-01-19T12:02:26.930Z,64.21
2023-01-19T12:04:59.547Z,63.62
2023-01-19T12:07:31.433Z,63.22
2023-01-19T12:10:08.331Z,64.09
2023-01-19T12:12:40.026Z,63.98
2023-01-19T12:15:18.351Z,63.68
2023-01-19T12:17:50.504Z,63.00
2023-01-19T12:20:28.031Z,63.66
2023-01-19T12:23:04.197Z,64.02
2023-01-19T12:25:43.233Z,63.69
2023-01-19T12:28:15.178Z,63.39
2023-01-19T12:30:52.169Z,63.50
2023-01-19T12:33:38.416Z,64.26
2023-01-19T12:36:11.645Z,64.20
2023-01-19T12:38:47.052Z,64.36
2023-01-19T12:41:27.401Z,64.53
2023-01-19T12:44:34.132Z,65.19
2023-01-19T12:47:20.168Z,65.77
2023-01-19T12:49:52.766Z,64.96
2023-01-19T12:52:26.716Z,64.76
2023-01-19T12:55:01.586Z,64.91
2023-01-19T12:57:33.936Z,65.48
2023-01-19T13:00:05.825Z,65.70
2023-01-19T13:02:52.417Z,66.36
2023-01-19T13:05:49.441Z,66.91
2023-01-19T13:08:22.727Z,67.28
2023-01-19T13:11:20.855Z,66.16
2023-01-19T13:14:28.295Z,66.23
2023-01-19T13:17:06.550Z,66.62
2023-01-19T13:19:45.069Z,66.73
2023-01-19T13:23:04.699Z,67.24
2023-01-19T13:25:36.530Z,67.02
2023-01-19T13:28:10.360Z,67.25
2023-01-19T13:30:47.545Z,68.05
2023-01-19T13:33:20.967Z,67.40
2023-01-19T13:35:54.949Z,67.27
2023-01-19T13:38:24.855Z,66.98
2023-01-19T13:40:55.982Z,66.77
2023-01-19T13:43:28.892Z,67.33
2023-01-19T13:45:56.753Z,68.03
2023-01-19T13:48:27.574Z,67.96
2023-01-19T13:51:01.715Z,67.78
2023-01-19T13:53:30.388Z,67.24
2023-01-19T13:56:10.682Z,67.10
2023-01-19T13:58:38.394Z,67.54
2023-01-19T14:01:06.146Z,67.75
2023-01-19T14:03:34.059Z,68.33
2023-01-19T14:06:02.006Z,68.59
2023-01-19T14:08:31.203Z,69.16
2023-01-19T14:11:03.224Z,70.93
2023-01-19T14:13:34.698Z,72.57
2023-01-19T14:16:06.908Z,72.89
2023-01-19T14:18:35.562Z,74.75
2023-01-19T14:21:06.068Z,76.74
2023-01-19T14:23:42.994Z,76.68
2023-01-19T14:26:51.259Z,76.34
2023-01-19T14:29:24.842Z,77.61
2023-01-19T14:31:54.212Z,75.80
2023-01-19T14:34:31.348Z,75.12
2023-01-19T14:36:59.681Z,75.15
2023-01-19T14:39:28.896Z,76.13
2023-01-19T14:42:00.005Z,74.81
2023-01-19T14:44:32.047Z,75.11
2023-01-19T14:47:00.863Z,75.50
2023-01-19T14:49:34.119Z,75.38
2023-01-19T14:52:04.429Z,76.61
2023-01-19T14:54:37.009Z,75.34
2023-01-19T14:57:04.972Z,75.80
2023-01-19T14:59:34.178Z,75.28
2023-01-19T15:02:01.966Z,75.78
2023-01-19T15:04:29.755Z,76.69
2023-01-19T15:06:57.601Z,76.18
2023-01-19T15:09:25.408Z,76.44
2023-01-19T15:11:53.920Z,77.96
2023-01-19T15:14:22.866Z,77.83
2023-01-19T15:16:52.106Z,79.36
2023-01-19T15:19:19.813Z,80.03
2023-01-19T15:21:47.564Z,80.61
2023-01-19T15:24:17.746Z,80.71
2023-01-19T15:26:45.995Z,82.32
2023-01-19T15:29:23.119Z,82.43
2023-01-19T15:31:53.050Z,83.19
2023-01-19T15:34:20.911Z,83.26
2023-01-19T15:36:48.714Z,83.65
2023-01-19T15:39:16.465Z,83.26
2023-01-19T15:41:44.313Z,84.37
2023-01-19T15:44:12.310Z,85.01
2023-01-19T15:46:40.110Z,84.91
2023-01-19T15:49:09.243Z,85.69
2023-01-19T15:51:37.131Z,86.80
2023-01-19T15:54:05.060Z,86.59
2023-01-19T15:56:33.248Z,86.38
2023-01-19T15:59:02.573Z,86.22
2023-01-19T16:01:32.069Z,85.90
2023-01-19T16:04:01.630Z,85.96
2023-01-19T16:06:31.870Z,84.69
2023-01-19T16:09:01.272Z,84.79
2023-01-19T16:11:30.153Z,84.19
2023-01-19T16:13:57.869Z,83.98
2023-01-19T16:16:27.951Z,83.46
2023-01-19T16:18:56.686Z,83.69
2023-01-19T16:21:24.831Z,84.07
2023-01-19T16:23:55.006Z,84.39
2023-01-19T16:26:29.084Z,84.05
2023-01-19T16:28:58.534Z,84.64
2023-01-19T16:31:26.695Z,85.08
2023-01-19T16:33:54.572Z,85.58
2023-01-19T16:36:25.286Z,85.72
2023-01-19T16:38:55.153Z,85.53
2023-01-19T16:41:22.840Z,85.40
2023-01-19T16:43:54.551Z,85.45
2023-01-19T16:46:24.928Z,85.68
2023-01-19T16:48:52.911Z,85.56
2023-01-19T16:51:20.966Z,85.60
2023-01-19T16:53:50.492Z,85.91
2023-01-19T16:56:19.858Z,85.94
2023-01-19T16:58:47.646Z,85.90
2023-01-19T17:01:19.801Z,85.96
2023-01-19T17:03:48.133Z,85.41
2023-01-19T17:06:18.513Z,85.64
2023-01-19T17:08:47.336Z,85.53
2023-01-19T17:11:20.518Z,85.43
2023-01-19T17:13:50.617Z,85.72
2023-01-19T17:16:18.398Z,86.41
2023-01-19T17:18:46.184Z,86.55
2023-01-19T17:21:17.565Z,86.36
2023-01-19T17:23:47.300Z,86.74
2023-01-19T17:26:15.721Z,86.43
2023-01-19T17:28:43.578Z,86.75
2023-01-19T17:31:14.423Z,86.79
2023-01-19T17:33:44.819Z,87.12
2023-01-19T17:36:14.980Z,86.98
2023-01-19T17:38:43.373Z,87.40
2023-01-19T17:41:15.063Z,88.38
2023-01-19T17:43:43.011Z,87.31
2023-01-19T17:46:13.012Z,86.89
2023-01-19T17:48:41.298Z,86.46
2023-01-19T17:51:11.930Z,84.71
2023-01-19T17:53:41.468Z,84.14
2023-01-19T17:56:11.192Z,83.00
2023-01-19T17:58:39.551Z,82.48
2023-01-19T18:01:13.332Z,82.94
2023-01-19T18:03:41.592Z,82.65
2023-01-19T18:06:09.777Z,82.33
2023-01-19T18:08:39.551Z,81.83
2023-01-19T18:11:08.115Z,81.82
2023-01-19T18:13:36.631Z,81.96
2023-01-19T18:16:06.856Z,81.72
2023-01-19T18:18:37.131Z,81.82
2023-01-19T18:21:06.875Z,81.46
2023-01-19T18:23:34.761Z,81.48
2023-01-19T18:26:04.581Z,81.49
2023-01-19T18:28:33.302Z,82.13
2023-01-19T18:31:01.483Z,81.57
2023-01-19T18:33:31.396Z,80.66
2023-01-19T18:36:00.985Z,81.53
2023-01-19T18:38:28.849Z,82.55
2023-01-19T18:41:04.690Z,83.21
2023-01-19T18:43:32.783Z,83.25
2023-01-19T18:46:00.767Z,83.22
2023-01-19T18:48:28.723Z,83.00
2023-01-19T18:50:56.759Z,82.31
2023-01-19T18:53:25.843Z,81.67
2023-01-19T18:55:55.129Z,81.78
2023-01-19T18:58:22.921Z,81.96
2023-01-19T19:00:51.434Z,81.80
2023-01-19T19:03:19.148Z,81.59
2023-01-19T19:05:46.867Z,81.59
2023-01-19T19:08:14.787Z,81.73
2023-01-19T19:10:44.636Z,82.03
2023-01-19T19:13:13.610Z,81.98
2023-01-19T19:15:41.430Z,81.79
2023-01-19T19:18:11.189Z,81.96
2023-01-19T19:20:39.018Z,81.81
2023-01-19T19:23:06.850Z,82.35
2023-01-19T19:25:35.174Z,82.69
2023-01-19T19:28:04.686Z,82.89
2023-01-19T19:30:34.338Z,83.00
2023-01-19T19:33:02.109Z,83.05
2023-01-19T19:35:29.860Z,82.75
2023-01-19T19:37:58.233Z,83.00
2023-01-19T19:40:26.231Z,83.11
2023-01-19T19:42:53.965Z,82.84
2023-01-19T19:45:23.073Z,82.91
2023-01-19T19:47:51.039Z,82.88
2023-01-19T19:50:18.863Z,83.53
2023-01-19T19:52:46.652Z,83.66
2023-01-19T19:55:14.586Z,83.67
2023-01-19T19:57:42.489Z,84.66
2023-01-19T20:00:11.649Z,84.93
2023-01-19T20:02:41.017Z,84.87
2023-01-19T20:05:09.554Z,85.33
2023-01-19T20:07:39.101Z,85.15
2023-01-19T20:10:07.856Z,85.18
2023-01-19T20:12:35.557Z,84.89
2023-01-19T20:15:03.527Z,84.38
2023-01-19T20:17:31.297Z,84.42
2023-01-19T20:20:03.739Z,84.24
2023-01-19T20:22:31.845Z,84.43
2023-01-19T20:24:59.608Z,84.48
2023-01-19T20:27:27.503Z,84.84
2023-01-19T20:29:58.070Z,84.90
2023-01-19T20:32:25.856Z,84.97
2023-01-19T20:34:54.102Z,84.40
2023-01-19T20:37:23.672Z,84.59
2023-01-19T20:39:51.601Z,84.41
2023-01-19T20:42:19.460Z,84.39
2023-01-19T20:44:47.492Z,84.43
2023-01-19T20:47:15.268Z,84.80
2023-01-19T20:49:43.577Z,84.58
2023-01-19T20:52:11.371Z,85.00
2023-01-19T20:54:40.477Z,84.86
2023-01-19T20:57:08.249Z,84.65
2023-01-19T20:59:37.066Z,84.63
2023-01-19T21:02:06.174Z,84.78
2023-01-19T21:04:34.079Z,85.46
2023-01-19T21:07:01.932Z,85.87
2023-01-19T21:09:29.742Z,86.26
2023-01-19T21:11:58.887Z,86.05
2023-01-19T21:14:26.703Z,86.62
2023-01-19T21:16:56.422Z,86.81
2023-01-19T21:19:24.176Z,86.76
2023-01-19T21:21:52.056Z,87.35
2023-01-19T21:24:19.896Z,87.44
2023-01-19T21:26:47.647Z,87.18
2023-01-19T21:29:16.726Z,87.20
2023-01-19T21:31:44.531Z,87.02
2023-01-19T21:34:12.333Z,87.04
2023-01-19T21:36:40.165Z,87.27
2023-01-19T21:39:09.066Z,87.26
2023-01-19T21:41:38.064Z,87.46
2023-01-19T21:44:06.042Z,87.70
2023-01-19T21:46:35.596Z,88.18
2023-01-19T21:49:04.895Z,88.34
2023-01-19T21:51:35.159Z,87.99
2023-01-19T21:54:03.804Z,88.31
2023-01-19T21:56:32.254Z,88.70
2023-01-19T21:59:02.196Z,88.53
2023-01-19T22:01:30.182Z,88.59
2023-01-19T22:04:00.337Z,88.65
2023-01-19T22:06:28.535Z,88.49
2023-01-19T22:08:57.942Z,88.92
2023-01-19T22:11:25.832Z,89.35
2023-01-19T22:13:53.857Z,89.95
2023-01-19T22:16:24.031Z,89.52
2023-01-19T22:18:54.027Z,89.36
2023-01-19T22:21:24.989Z,89.50
2023-01-19T22:23:54.272Z,89.63
2023-01-19T22:26:22.750Z,89.70
2023-01-19T22:28:54.171Z,89.51
2023-01-19T22:31:22.081Z,89.41
2023-01-19T22:33:50.864Z,89.49
2023-01-19T22:36:21.184Z,89.93
2023-01-19T22:38:55.145Z,89.83
2023-01-19T22:41:24.842Z,89.95
2023-01-19T22:43:55.453Z,90.29
2023-01-19T22:46:24.617Z,90.37
2023-01-19T22:48:53.178Z,90.67
2023-01-19T22:51:22.538Z,90.89
2023-01-19T22:53:50.601Z,90.62
2023-01-19T22:56:21.901Z,90.84
2023-01-19T22:58:50.032Z,91.10
2023-01-19T23:01:20.069Z,91.16
2023-01-19T23:03:48.135Z,91.36
2023-01-19T23:06:18.028Z,91.39
2023-01-19T23:08:45.929Z,91.35
2023-01-19T23:11:15.586Z,91.42
2023-01-19T23:13:45.021Z,91.64
2023-01-19T23:16:13.778Z,91.71
2023-01-19T23:18:42.610Z,91.56
2023-01-19T23:21:13.013Z,91.59
2023-01-19T23:23:41.265Z,91.65
2023-01-19T23:26:11.373Z,91.66
2023-01-19T23:28:39.557Z,91.75
2023-01-19T23:31:16.850Z,91.66
2023-01-19T23:33:45.550Z,91.59
2023-01-19T23:36:14.530Z,91.87
2023-01-19T23:38:43.141Z,91.77
2023-01-19T23:41:10.785Z,91.92
2023-01-19T23:43:38.476Z,91.85
2023-01-19T23:46:07.406Z,91.80
2023-01-19T23:48:37.529Z,91.99
2023-01-19T23:51:07.339Z,92.17
2023-01-19T23:53:35.086Z,91.95
2023-01-19T23:56:10.136Z,92.07
2023-01-19T23:58:37.894Z,92.62
